Terminal Aerodrome Forecast
Issued by NWS Twin Cities, MN

Home | Current Version | Previous Version | Text Only | Print | Product List | Glossary Off
Versions: 1 2 3 4 5 6 7 8 9 10 11 12 13 14 15 16 17 18 19 20 21 22 23 24 25

000
FTUS43 KMPX 241700
TAFEAU
TAF
KEAU 241728Z 2418/2518 15007KT P6SM SCT007 BKN040
     FM241900 16006KT P6SM BKN015 OVC025
     FM250200 23005KT P6SM SCT009 OVC015
     FM250600 28006KT P6SM FEW010
     FM251600 29011G19KT P6SM FEW250=

USA.gov is the U.S. government's official web portal to all federal, state and local government web resources and services.